Left ArrowRight Arrow

38.83388, -104.82136

Hourly Observations for April 12, 2018

Temp ( °F °C ) Dew Point ( °F °C ) Humidity (%) Winds ( mph kmh ) Pressure ( in mb ) Visibility ( mi km ) Precip ( " mm )
12:58 am 00:58 Mostly Cloudy 59 14.8 11 -11.8 15 15 SSW 3 6 29.29 992 10 16 0.00 0.00
1:58 am 01:58 Mostly Clear 59 14.8 11 -11.8 15 15 SSW 5 7 29.25 991 10 16 0.00 0.00
2:58 am 02:58 Mostly Cloudy 58 14.2 13 -10.5 17 17 SE 3 6 29.23 990 10 16 0.00 0.00
3:58 am 03:58 Mostly Clear 60 15.7 11 -11.8 14 14 SE 14 22 29.17 988 10 16 0.00 0.00
4:58 am 04:58 Clear 57 14 11 -11.6 16 16 S 6 9 29.17 988 10 16 0.00 0.00
5:58 am 05:58 Mostly Clear 58 14.2 13 -10.4 17 17 N 5 7 29.14 987 10 16 0.00 0.00
6:58 am 06:58 Sunny 59 14.8 11 -11.6 15 15 SSE 21 33 29.12 986 10 16 0.00 0.00
7:58 am 07:58 Sunny 60 15.5 10 -12.3 14 14 E 5 7 29.10 985 10 16 0.00 0.00
8:58 am 08:58 Sunny 61 15.9 10 -12 14 14 SE 20 31 29.07 984 10 16 0.00 0.00
9:58 am 09:58 Sunny 64 17.9 12 -10.9 13 13 SSE 18 30 29.05 984 10 16 0.00 0.00
10:45 am 10:45 Sunny 63 17 12 -11 14 14 SE 17 28 29.07 984 10 16 0.00 0.00
10:51 am 10:51 Sunny 63 17 12 -11 14 14 SSE 20 31 29.07 984 10 16 0.00 0.00
10:58 am 10:58 Sunny 62 16.8 12 -11 14 14 S 12 19 29.07 984 10 16 0.00 0.00
11:07 am 11:07 Sunny 63 17 14 -10 15 15 S 20 31 29.06 984 10 16 0.00 0.00
11:58 am 11:58 Sunny 66 19 15 -9.7 13 13 SE 21 33 29.03 983 10 16 0.00 0.00
12:09 pm 12:09 Sunny 66 19 16 -9 14 14 SSE 13 20 29.03 983 10 16 0.00 0.00
12:23 pm 12:23 Sunny 68 20 14 -10 12 12 SSE 21 33 28.98 982 10 16 0.00 0.00
12:28 pm 12:28 Sunny 68 20 14 -10 12 12 ESE 13 20 28.98 981 10 16 0.00 0.00
12:58 pm 12:58 Sunny 67 19.7 15 -9.6 13 13 SSE 28 44 28.96 981 10 16 0.00 0.00
1:58 pm 13:58 Partly Cloudy 65 18.1 11 -11.5 12 12 S 24 39 28.99 982 10 16 0.00 0.00
2:58 pm 14:58 Mostly Sunny 65 18.6 12 -11.1 12 12 SSE 20 31 28.99 982 10 16 0.00 0.00
3:31 pm 15:31 Partly Cloudy 66 19 10 -12 11 11 SE 12 19 28.95 981 10 16 0.00 0.00
3:41 pm 15:41 Partly Cloudy 66 19 10 -12 11 11 S 13 20 28.95 981 10 16 0.00 0.00
3:58 pm 15:58 Partly Cloudy 66 18.8 9 -12.6 11 11 S 18 30 28.94 980 10 16 0.00 0.00
4:53 pm 16:53 Mostly Sunny 64 18 9 -13 11 11 S 18 30 28.93 980 10 16 0.00 0.00
4:58 pm 16:58 Mostly Sunny 64 18 7 -14 10 10 S 24 39 28.93 980 10 16 0.00 0.00
5:23 pm 17:23 Sunny 64 18 5 -15 9 9 S 24 39 28.91 979 10 16 0.00 0.00
5:58 pm 17:58 Sunny 63 17 8 -13.3 11 11 S 16 26 28.93 980 10 16 0.00 0.00
6:43 pm 18:43 Cloudy 61 16 10 -12 13 13 S 20 31 28.94 980 9 14 0.00 0.00
6:55 pm 18:55 Mostly Cloudy 61 16 10 -12 13 13 SSE 17 28 28.93 980 10 16 0.00 0.00
6:58 pm 18:58 Mostly Cloudy 60 15.6 10 -12 14 14 SSE 14 22 28.94 980 10 16 0.00 0.00
7:08 pm 19:08 Mostly Cloudy 61 16 9 -13 12 12 S 18 30 28.93 980 10 16 0.00 0.00
7:58 pm 19:58 Mostly Cloudy 58 14.2 10 -12 15 15 S 8 13 28.92 979 10 16 0.00 0.00
8:58 pm 20:58 Cloudy 59 14.8 8 -13.3 13 13 SE 6 9 28.93 980 10 16 0.00 0.00
9:58 pm 21:58 Mostly Cloudy 59 14.8 -3 -19.7 8 8 S 12 19 28.94 980 10 16 0.00 0.00
10:21 pm 22:21 Mostly Cloudy 55 13 7 -14 14 14 WNW 15 24 28.98 982 10 16 0.00 0.00
10:58 pm 22:58 Mostly Clear 52 11.3 14 -10.2 21 21 WNW 10 17 29.01 982 10 16 0.00 0.00
11:58 pm 23:58 Clear 46 8 29 -1.4 52 52 NNW 15 24 29.05 984 10 16 0.00 0.00

Powered by Vaisala Xweather